Terminal Aerodrome Forecast
Issued by NWS Wichita, KS

Home | Current Version | Previous Version | Text Only | Print | Product List | Glossary Off
Versions: 1 2 3 4 5 6 7 8 9 10 11 12 13 14 15 16 17 18 19 20 21 22 23 24 25 26 27 28 29

000
FTUS43 KICT 270520
TAFICT
TAF
KICT 270520Z 2706/2806 10014G24KT P6SM -TSRA OVC090CB
     FM270700 11012KT P6SM BKN150
     FM271000 15011KT 6SM BR OVC010
     FM271600 17015G23KT P6SM SCT030
     FM272200 17017G24KT P6SM VCTS BKN035CB=

USA.gov is the U.S. government's official web portal to all federal, state and local government web resources and services.